NKS402 KLAX-KLAS
Flight info
| Callsign | NKS402 |
|---|---|
| Flight time | 0h 44m |
| Altitude | 25000 |
| Route | ORCKA5 MISEN RNDRZ3 |
| Aircraft | A321/M-SDE3FGHIRWY/LB1 |
Departure
| Time | 2026-05-04 04:02 |
|---|---|
| Airport | Los Angeles International Airport (KLAX) |
Arrival
| Time | 2026-05-04 04:47 |
|---|---|
| Airport | Harry Reid International Airport (KLAS) |
| Time | Latitude | Longitude | Altitude | Speed | Heading |
|---|---|---|---|---|---|
| 2026-05-04 03:39 | 33.94068 | -118.40498 | 93 ft | 0 kts | 81° |
| 2026-05-04 03:49 | 33.94067 | -118.40506 | 93 ft | 3 kts | 79° |
| 2026-05-04 03:50 | 33.94062 | -118.40528 | 93 ft | 3 kts | 85° |
| 2026-05-04 03:50 | 33.94064 | -118.40550 | 93 ft | 3 kts | 134° |
| 2026-05-04 03:50 | 33.94079 | -118.40561 | 92 ft | 1 kts | 173° |
| 2026-05-04 03:50 | 33.94080 | -118.40561 | 92 ft | 0 kts | 173° |
| 2026-05-04 03:53 | 33.94064 | -118.40559 | 93 ft | 7 kts | 172° |
| 2026-05-04 03:53 | 33.94008 | -118.40550 | 95 ft | 9 kts | 173° |
| 2026-05-04 03:53 | 33.93945 | -118.40541 | 95 ft | 10 kts | 173° |
| 2026-05-04 03:53 | 33.93877 | -118.40531 | 95 ft | 10 kts | 173° |
| 2026-05-04 03:54 | 33.93830 | -118.40486 | 96 ft | 9 kts | 98° |
| 2026-05-04 03:54 | 33.93838 | -118.40392 | 97 ft | 16 kts | 83° |
| 2026-05-04 03:54 | 33.93853 | -118.40251 | 96 ft | 17 kts | 82° |
| 2026-05-04 03:54 | 33.93869 | -118.40105 | 96 ft | 18 kts | 82° |
| 2026-05-04 03:55 | 33.93883 | -118.39955 | 98 ft | 19 kts | 83° |
| 2026-05-04 03:55 | 33.93899 | -118.39795 | 98 ft | 20 kts | 83° |
| 2026-05-04 03:55 | 33.93917 | -118.39627 | 95 ft | 21 kts | 83° |
| 2026-05-04 03:55 | 33.93935 | -118.39452 | 96 ft | 22 kts | 83° |
| 2026-05-04 03:56 | 33.93954 | -118.39266 | 93 ft | 23 kts | 83° |
| 2026-05-04 03:56 | 33.93973 | -118.39075 | 94 ft | 23 kts | 84° |
| 2026-05-04 03:56 | 33.93986 | -118.38948 | 95 ft | 23 kts | 82° |
| 2026-05-04 03:56 | 33.94005 | -118.38767 | 94 ft | 19 kts | 83° |
| 2026-05-04 03:57 | 33.94021 | -118.38609 | 95 ft | 19 kts | 83° |
| 2026-05-04 03:57 | 33.94037 | -118.38450 | 97 ft | 20 kts | 83° |
| 2026-05-04 03:57 | 33.94054 | -118.38285 | 97 ft | 20 kts | 84° |
| 2026-05-04 03:57 | 33.94073 | -118.38099 | 93 ft | 14 kts | 82° |
| 2026-05-04 03:58 | 33.94072 | -118.38027 | 93 ft | 0 kts | 109° |
| 2026-05-04 03:59 | 33.94072 | -118.38026 | 93 ft | 1 kts | 110° |
| 2026-05-04 03:59 | 33.94040 | -118.38000 | 93 ft | 12 kts | 162° |
| 2026-05-04 03:59 | 33.93982 | -118.38052 | 95 ft | 9 kts | 262° |
| 2026-05-04 03:59 | 33.93981 | -118.38056 | 96 ft | 0 kts | 261° |
| 2026-05-04 04:01 | 33.93981 | -118.38057 | 93 ft | 0 kts | 261° |
| 2026-05-04 04:01 | 33.93973 | -118.38128 | 94 ft | 33 kts | 263° |
| 2026-05-04 04:01 | 33.93915 | -118.38696 | 97 ft | 102 kts | 263° |
| 2026-05-04 04:02 | 33.93804 | -118.39784 | 102 ft | 156 kts | 263° |
| 2026-05-04 04:02 | 33.93663 | -118.41119 | 620 ft | 161 kts | 261° |
| 2026-05-04 04:02 | 33.93537 | -118.42464 | 1308 ft | 163 kts | 266° |
| 2026-05-04 04:02 | 33.93460 | -118.43901 | 1627 ft | 182 kts | 267° |
| 2026-05-04 04:03 | 33.93325 | -118.45487 | 1859 ft | 198 kts | 258° |
| 2026-05-04 04:03 | 33.92864 | -118.47118 | 2048 ft | 217 kts | 251° |
| 2026-05-04 04:03 | 33.92277 | -118.48879 | 2470 ft | 232 kts | 248° |
| 2026-05-04 04:03 | 33.91632 | -118.50641 | 3348 ft | 230 kts | 247° |
| 2026-05-04 04:04 | 33.90979 | -118.52408 | 4121 ft | 233 kts | 246° |
| 2026-05-04 04:04 | 33.90321 | -118.54206 | 4866 ft | 237 kts | 246° |
| 2026-05-04 04:04 | 33.89660 | -118.56031 | 5591 ft | 240 kts | 248° |
| 2026-05-04 04:04 | 33.88997 | -118.57884 | 6356 ft | 243 kts | 248° |
| 2026-05-04 04:05 | 33.88334 | -118.59768 | 7039 ft | 245 kts | 248° |
| 2026-05-04 04:05 | 33.87670 | -118.61661 | 7778 ft | 246 kts | 247° |
| 2026-05-04 04:05 | 33.87002 | -118.63569 | 8513 ft | 248 kts | 246° |
| 2026-05-04 04:05 | 33.86057 | -118.65293 | 9222 ft | 250 kts | 223° |
| 2026-05-04 04:06 | 33.84563 | -118.66359 | 9936 ft | 254 kts | 198° |
| 2026-05-04 04:06 | 33.82787 | -118.66484 | 10567 ft | 263 kts | 171° |
| 2026-05-04 04:06 | 33.81113 | -118.65546 | 11204 ft | 274 kts | 143° |
| 2026-05-04 04:06 | 33.79985 | -118.63670 | 11818 ft | 287 kts | 112° |
| 2026-05-04 04:07 | 33.79801 | -118.61255 | 12407 ft | 299 kts | 80° |
| 2026-05-04 04:07 | 33.80679 | -118.58998 | 12927 ft | 309 kts | 52° |
| 2026-05-04 04:07 | 33.82137 | -118.56973 | 13071 ft | 332 kts | 46° |
| 2026-05-04 04:07 | 33.83799 | -118.54924 | 13213 ft | 353 kts | 45° |
| 2026-05-04 04:08 | 33.85595 | -118.52802 | 13344 ft | 373 kts | 44° |
| 2026-05-04 04:08 | 33.87488 | -118.50569 | 13606 ft | 387 kts | 44° |
| 2026-05-04 04:08 | 33.89424 | -118.48253 | 14090 ft | 394 kts | 45° |
| 2026-05-04 04:08 | 33.91362 | -118.45895 | 14575 ft | 399 kts | 45° |
| 2026-05-04 04:09 | 33.93239 | -118.43416 | 15041 ft | 406 kts | 53° |
| 2026-05-04 04:09 | 33.94842 | -118.40590 | 15508 ft | 412 kts | 56° |
| 2026-05-04 04:09 | 33.96459 | -118.37705 | 15986 ft | 418 kts | 56° |
| 2026-05-04 04:09 | 33.98107 | -118.34785 | 16448 ft | 425 kts | 55° |
| 2026-05-04 04:10 | 33.99797 | -118.31804 | 16902 ft | 431 kts | 54° |
| 2026-05-04 04:10 | 34.01501 | -118.28805 | 17360 ft | 437 kts | 54° |
| 2026-05-04 04:10 | 34.03231 | -118.25759 | 17837 ft | 443 kts | 54° |
| 2026-05-04 04:10 | 34.04951 | -118.22732 | 18359 ft | 446 kts | 54° |
| 2026-05-04 04:11 | 34.06717 | -118.19616 | 18790 ft | 450 kts | 54° |
| 2026-05-04 04:11 | 34.08495 | -118.16473 | 19223 ft | 454 kts | 54° |
| 2026-05-04 04:11 | 34.10262 | -118.13341 | 19666 ft | 458 kts | 54° |
| 2026-05-04 04:11 | 34.12064 | -118.10147 | 20104 ft | 461 kts | 54° |
| 2026-05-04 04:12 | 34.13888 | -118.06916 | 20581 ft | 464 kts | 54° |
| 2026-05-04 04:12 | 34.15697 | -118.03709 | 21029 ft | 468 kts | 54° |
| 2026-05-04 04:12 | 34.17535 | -118.00441 | 21491 ft | 471 kts | 54° |
| 2026-05-04 04:12 | 34.19387 | -117.97145 | 21953 ft | 474 kts | 54° |
| 2026-05-04 04:13 | 34.21253 | -117.93828 | 22380 ft | 478 kts | 54° |
| 2026-05-04 04:13 | 34.23129 | -117.90490 | 22841 ft | 481 kts | 54° |
| 2026-05-04 04:13 | 34.24997 | -117.87159 | 23222 ft | 484 kts | 54° |
| 2026-05-04 04:13 | 34.26890 | -117.83780 | 23626 ft | 487 kts | 54° |
| 2026-05-04 04:14 | 34.28797 | -117.80378 | 23956 ft | 491 kts | 54° |
| 2026-05-04 04:14 | 34.30716 | -117.76951 | 24273 ft | 494 kts | 54° |
| 2026-05-04 04:14 | 34.32648 | -117.73494 | 24590 ft | 497 kts | 54° |
| 2026-05-04 04:14 | 34.34588 | -117.70017 | 24881 ft | 500 kts | 54° |
| 2026-05-04 04:15 | 34.36552 | -117.66541 | 24958 ft | 497 kts | 53° |
| 2026-05-04 04:15 | 34.38541 | -117.63149 | 24976 ft | 491 kts | 52° |
| 2026-05-04 04:15 | 34.40551 | -117.59814 | 24962 ft | 490 kts | 51° |
| 2026-05-04 04:15 | 34.42581 | -117.56487 | 24942 ft | 492 kts | 51° |
| 2026-05-04 04:16 | 34.44640 | -117.53114 | 24934 ft | 505 kts | 51° |
| 2026-05-04 04:16 | 34.46743 | -117.49642 | 24979 ft | 515 kts | 51° |
| 2026-05-04 04:16 | 34.48860 | -117.46110 | 24964 ft | 518 kts | 52° |
| 2026-05-04 04:16 | 34.50961 | -117.42570 | 24997 ft | 518 kts | 52° |
| 2026-05-04 04:17 | 34.53056 | -117.39019 | 24996 ft | 518 kts | 52° |
| 2026-05-04 04:17 | 34.55149 | -117.35464 | 24995 ft | 518 kts | 52° |
| 2026-05-04 04:17 | 34.57238 | -117.31918 | 24997 ft | 518 kts | 52° |
| 2026-05-04 04:17 | 34.59336 | -117.28367 | 24997 ft | 517 kts | 52° |
| 2026-05-04 04:18 | 34.61436 | -117.24811 | 24983 ft | 517 kts | 52° |
| 2026-05-04 04:18 | 34.63533 | -117.21266 | 24968 ft | 517 kts | 52° |
| 2026-05-04 04:18 | 34.65631 | -117.17720 | 24847 ft | 517 kts | 52° |
| 2026-05-04 04:18 | 34.67703 | -117.14213 | 24843 ft | 517 kts | 52° |
| 2026-05-04 04:19 | 34.69795 | -117.10667 | 24840 ft | 517 kts | 52° |
| 2026-05-04 04:19 | 34.71892 | -117.07106 | 24841 ft | 516 kts | 52° |
| 2026-05-04 04:19 | 34.73981 | -117.03556 | 24852 ft | 516 kts | 52° |
| 2026-05-04 04:19 | 34.76065 | -117.00005 | 24850 ft | 516 kts | 52° |
| 2026-05-04 04:20 | 34.78156 | -116.96442 | 24855 ft | 517 kts | 52° |
| 2026-05-04 04:20 | 34.80243 | -116.92881 | 24860 ft | 516 kts | 52° |
| 2026-05-04 04:20 | 34.82326 | -116.89324 | 24866 ft | 511 kts | 52° |
| 2026-05-04 04:20 | 34.84350 | -116.85862 | 24876 ft | 494 kts | 53° |
| 2026-05-04 04:21 | 34.86338 | -116.82457 | 24879 ft | 494 kts | 53° |
| 2026-05-04 04:21 | 34.88338 | -116.79035 | 24878 ft | 496 kts | 53° |
| 2026-05-04 04:21 | 34.90342 | -116.75600 | 24879 ft | 497 kts | 53° |
| 2026-05-04 04:21 | 34.92342 | -116.72162 | 24879 ft | 497 kts | 53° |
| 2026-05-04 04:22 | 34.94304 | -116.68751 | 24869 ft | 498 kts | 53° |
| 2026-05-04 04:22 | 34.96273 | -116.65280 | 24859 ft | 498 kts | 54° |
| 2026-05-04 04:22 | 34.98227 | -116.61799 | 24850 ft | 498 kts | 54° |
| 2026-05-04 04:22 | 35.00179 | -116.58306 | 24842 ft | 498 kts | 54° |
| 2026-05-04 04:23 | 35.02129 | -116.54814 | 24838 ft | 498 kts | 54° |
| 2026-05-04 04:23 | 35.04081 | -116.51325 | 24827 ft | 498 kts | 54° |
| 2026-05-04 04:23 | 35.06042 | -116.47832 | 24817 ft | 498 kts | 54° |
| 2026-05-04 04:23 | 35.08001 | -116.44353 | 24621 ft | 493 kts | 53° |
| 2026-05-04 04:24 | 35.09948 | -116.40946 | 24292 ft | 484 kts | 50° |
| 2026-05-04 04:24 | 35.12147 | -116.37919 | 24065 ft | 471 kts | 43° |
| 2026-05-04 04:24 | 35.14381 | -116.35036 | 23836 ft | 463 kts | 43° |
| 2026-05-04 04:24 | 35.16580 | -116.32193 | 23635 ft | 458 kts | 43° |
| 2026-05-04 04:25 | 35.18761 | -116.29370 | 23447 ft | 455 kts | 43° |
| 2026-05-04 04:25 | 35.20928 | -116.26561 | 23413 ft | 454 kts | 43° |
| 2026-05-04 04:25 | 35.23102 | -116.23742 | 23404 ft | 456 kts | 44° |
| 2026-05-04 04:25 | 35.25256 | -116.20892 | 22920 ft | 458 kts | 45° |
| 2026-05-04 04:26 | 35.27380 | -116.17998 | 22494 ft | 455 kts | 46° |
| 2026-05-04 04:26 | 35.29433 | -116.15148 | 22070 ft | 451 kts | 46° |
| 2026-05-04 04:26 | 35.31505 | -116.12257 | 21644 ft | 447 kts | 46° |
| 2026-05-04 04:26 | 35.33553 | -116.09407 | 21192 ft | 444 kts | 46° |
| 2026-05-04 04:27 | 35.35595 | -116.06580 | 20737 ft | 441 kts | 46° |
| 2026-05-04 04:27 | 35.37635 | -116.03769 | 20285 ft | 439 kts | 46° |
| 2026-05-04 04:27 | 35.39660 | -116.00983 | 19846 ft | 437 kts | 47° |
| 2026-05-04 04:27 | 35.41676 | -115.98212 | 19391 ft | 434 kts | 47° |
| 2026-05-04 04:28 | 35.43673 | -115.95468 | 19049 ft | 428 kts | 47° |
| 2026-05-04 04:28 | 35.45633 | -115.92773 | 18648 ft | 424 kts | 48° |
| 2026-05-04 04:28 | 35.47576 | -115.90099 | 18347 ft | 416 kts | 48° |
| 2026-05-04 04:28 | 35.49490 | -115.87461 | 17940 ft | 411 kts | 48° |
| 2026-05-04 04:29 | 35.51377 | -115.84852 | 17474 ft | 404 kts | 49° |
| 2026-05-04 04:29 | 35.53211 | -115.82310 | 16883 ft | 389 kts | 49° |
| 2026-05-04 04:29 | 35.54968 | -115.79874 | 16499 ft | 383 kts | 49° |
| 2026-05-04 04:29 | 35.56724 | -115.77440 | 16192 ft | 375 kts | 49° |
| 2026-05-04 04:30 | 35.58429 | -115.75076 | 16074 ft | 363 kts | 49° |
| 2026-05-04 04:30 | 35.60081 | -115.72794 | 15906 ft | 352 kts | 49° |
| 2026-05-04 04:30 | 35.61712 | -115.70581 | 15622 ft | 346 kts | 49° |
| 2026-05-04 04:30 | 35.63324 | -115.68417 | 15548 ft | 342 kts | 49° |
| 2026-05-04 04:31 | 35.64938 | -115.66254 | 15389 ft | 342 kts | 49° |
| 2026-05-04 04:31 | 35.66526 | -115.64118 | 15215 ft | 341 kts | 49° |
| 2026-05-04 04:31 | 35.68119 | -115.61969 | 15050 ft | 338 kts | 50° |
| 2026-05-04 04:31 | 35.69699 | -115.59831 | 14879 ft | 337 kts | 50° |
| 2026-05-04 04:32 | 35.71272 | -115.57701 | 14711 ft | 335 kts | 50° |
| 2026-05-04 04:32 | 35.72941 | -115.55689 | 14538 ft | 335 kts | 40° |
| 2026-05-04 04:32 | 35.74892 | -115.54120 | 14372 ft | 335 kts | 31° |
| 2026-05-04 04:32 | 35.76893 | -115.52724 | 14203 ft | 334 kts | 31° |
| 2026-05-04 04:33 | 35.78914 | -115.51309 | 14029 ft | 333 kts | 31° |
| 2026-05-04 04:33 | 35.80934 | -115.49897 | 13863 ft | 332 kts | 31° |
| 2026-05-04 04:33 | 35.82946 | -115.48492 | 13693 ft | 331 kts | 32° |
| 2026-05-04 04:33 | 35.84950 | -115.47089 | 13506 ft | 331 kts | 32° |
| 2026-05-04 04:34 | 35.86925 | -115.45704 | 13337 ft | 330 kts | 32° |
| 2026-05-04 04:34 | 35.88921 | -115.44299 | 13168 ft | 330 kts | 32° |
| 2026-05-04 04:34 | 35.90910 | -115.42896 | 13001 ft | 329 kts | 32° |
| 2026-05-04 04:34 | 35.92909 | -115.41490 | 12604 ft | 330 kts | 31° |
| 2026-05-04 04:35 | 35.94902 | -115.40098 | 12211 ft | 328 kts | 31° |
| 2026-05-04 04:35 | 35.96886 | -115.38719 | 11822 ft | 326 kts | 31° |
| 2026-05-04 04:35 | 35.98773 | -115.37245 | 11449 ft | 323 kts | 43° |
| 2026-05-04 04:35 | 36.00243 | -115.35191 | 11087 ft | 316 kts | 62° |
| 2026-05-04 04:36 | 36.01114 | -115.32739 | 10770 ft | 306 kts | 79° |
| 2026-05-04 04:36 | 36.01365 | -115.30197 | 10528 ft | 297 kts | 96° |
| 2026-05-04 04:36 | 36.01245 | -115.27652 | 10271 ft | 296 kts | 98° |
| 2026-05-04 04:36 | 36.01115 | -115.25108 | 10038 ft | 296 kts | 97° |
| 2026-05-04 04:37 | 36.00749 | -115.17550 | 9372 ft | 284 kts | 97° |
| 2026-05-04 04:37 | 36.00635 | -115.15189 | 9258 ft | 273 kts | 98° |
| 2026-05-04 04:38 | 36.00523 | -115.12880 | 9138 ft | 265 kts | 98° |
| 2026-05-04 04:38 | 36.00408 | -115.10621 | 9023 ft | 262 kts | 98° |
| 2026-05-04 04:38 | 36.00289 | -115.08365 | 8776 ft | 263 kts | 98° |
| 2026-05-04 04:38 | 36.00171 | -115.06105 | 8532 ft | 264 kts | 98° |
| 2026-05-04 04:39 | 36.00054 | -115.03847 | 8292 ft | 265 kts | 98° |
| 2026-05-04 04:39 | 35.99935 | -115.01584 | 8044 ft | 262 kts | 97° |
| 2026-05-04 04:39 | 35.99864 | -114.99345 | 7721 ft | 260 kts | 96° |
| 2026-05-04 04:39 | 35.99845 | -114.97110 | 7375 ft | 259 kts | 95° |
| 2026-05-04 04:40 | 35.99846 | -114.94901 | 7067 ft | 256 kts | 95° |
| 2026-05-04 04:40 | 36.00187 | -114.92735 | 6731 ft | 264 kts | 63° |
| 2026-05-04 04:40 | 36.01429 | -114.91069 | 6385 ft | 268 kts | 32° |
| 2026-05-04 04:40 | 36.03114 | -114.90117 | 6030 ft | 267 kts | 8° |
| 2026-05-04 04:41 | 36.04932 | -114.90200 | 5571 ft | 265 kts | 337° |
| 2026-05-04 04:41 | 36.06418 | -114.91373 | 5211 ft | 251 kts | 304° |
| 2026-05-04 04:41 | 36.07224 | -114.93151 | 4993 ft | 229 kts | 279° |
| 2026-05-04 04:41 | 36.07362 | -114.95038 | 4721 ft | 215 kts | 264° |
| 2026-05-04 04:42 | 36.07362 | -114.96866 | 4465 ft | 210 kts | 264° |
| 2026-05-04 04:42 | 36.07363 | -114.98663 | 4198 ft | 207 kts | 265° |
| 2026-05-04 04:42 | 36.07364 | -115.00436 | 3953 ft | 202 kts | 265° |
| 2026-05-04 04:42 | 36.07366 | -115.02100 | 3733 ft | 182 kts | 268° |
| 2026-05-04 04:43 | 36.07367 | -115.03572 | 3502 ft | 160 kts | 268° |
| 2026-05-04 04:43 | 36.07367 | -115.04891 | 3309 ft | 151 kts | 266° |
| 2026-05-04 04:43 | 36.07367 | -115.06175 | 3139 ft | 152 kts | 266° |
| 2026-05-04 04:43 | 36.07367 | -115.07472 | 2917 ft | 151 kts | 266° |
| 2026-05-04 04:44 | 36.07366 | -115.08767 | 2724 ft | 150 kts | 268° |
| 2026-05-04 04:44 | 36.07365 | -115.09613 | 2627 ft | 147 kts | 264° |
| 2026-05-04 04:44 | 36.07366 | -115.10872 | 2377 ft | 146 kts | 264° |
| 2026-05-04 04:44 | 36.07361 | -115.12155 | 2223 ft | 151 kts | 267° |
| 2026-05-04 04:45 | 36.07368 | -115.13421 | 2127 ft | 138 kts | 267° |
| 2026-05-04 04:45 | 36.07364 | -115.14452 | 2128 ft | 97 kts | 269° |
| 2026-05-04 04:45 | 36.07360 | -115.15073 | 2119 ft | 50 kts | 268° |
| 2026-05-04 04:47 | 36.07817 | -115.15824 | 2124 ft | 17 kts | 0° |
| 2026-05-04 04:47 | 36.07938 | -115.15826 | 2124 ft | 18 kts | 360° |
| 2026-05-04 04:47 | 36.08068 | -115.15826 | 2125 ft | 18 kts | 1° |
| 2026-05-04 04:47 | 36.08194 | -115.15826 | 2127 ft | 18 kts | 0° |
| 2026-05-04 04:48 | 36.08321 | -115.15817 | 2126 ft | 18 kts | 21° |
| 2026-05-04 04:49 | 36.08380 | -115.15436 | 2119 ft | 17 kts | 64° |
| 2026-05-04 04:49 | 36.08373 | -115.15337 | 2116 ft | 11 kts | 144° |
| 2026-05-04 04:49 | 36.08345 | -115.15321 | 2117 ft | 1 kts | 158° |
| 2026-05-04 04:49 | 36.08341 | -115.15319 | 2117 ft | 1 kts | 157° |